Terminal Aerodrome Forecast
Issued by NWS Shreveport, LA

Home | Current Version | Previous Version | Text Only | Print | Product List | Glossary On
Versions: 1 2 3 4 5 6 7 8 9 10 11 12 13
000
FTUS44 KSHV 311700
TAFLFK
TAF
KLFK 311727Z 3118/0118 10004KT P6SM VCTS SCT035CB BKN120
     FM312200 20007KT P6SM VCTS BKN045CB
      TEMPO 3122/0102 3SM -TSRA BR OVC025CB
     FM010200 14003KT P6SM VCTS OVC040CB
     FM010600 VRB05KT P6SM OVC025
      TEMPO 0109/0113 BKN007 OVC015
     FM011400 28004KT P6SM OVC015=

USA.gov is the U.S. government's official web portal to all federal, state and local government web resources and services.